sensor_id;sensor_type;location;lat;lon;timestamp;temperature;humidity
14099;DHT22;7126;48.458;7.930;2023-07-29T00:00:32;19.00;99.90
14099;DHT22;7126;48.458;7.930;2023-07-29T00:02:58;19.00;99.90
14099;DHT22;7126;48.458;7.930;2023-07-29T00:05:23;19.00;99.90
14099;DHT22;7126;48.458;7.930;2023-07-29T00:07:49;19.00;99.90
14099;DHT22;7126;48.458;7.930;2023-07-29T00:10:14;19.00;99.90
14099;DHT22;7126;48.458;7.930;2023-07-29T00:12:40;19.00;99.90
14099;DHT22;7126;48.458;7.930;2023-07-29T00:15:06;19.00;99.90
14099;DHT22;7126;48.458;7.930;2023-07-29T00:17:31;19.00;99.90
14099;DHT22;7126;48.458;7.930;2023-07-29T00:19:57;19.00;99.90
14099;DHT22;7126;48.458;7.930;2023-07-29T00:22:23;19.10;99.90
14099;DHT22;7126;48.458;7.930;2023-07-29T00:24:52;19.10;99.90
14099;DHT22;7126;48.458;7.930;2023-07-29T00:27:20;19.10;99.90
14099;DHT22;7126;48.458;7.930;2023-07-29T00:29:46;19.10;99.90
14099;DHT22;7126;48.458;7.930;2023-07-29T00:32:12;19.10;99.90
14099;DHT22;7126;48.458;7.930;2023-07-29T00:34:37;19.00;99.90
14099;DHT22;7126;48.458;7.930;2023-07-29T00:37:03;19.00;99.90
14099;DHT22;7126;48.458;7.930;2023-07-29T00:39:29;19.10;99.90
14099;DHT22;7126;48.458;7.930;2023-07-29T00:41:54;19.00;99.90
14099;DHT22;7126;48.458;7.930;2023-07-29T00:44:20;19.00;99.90
14099;DHT22;7126;48.458;7.930;2023-07-29T00:46:46;19.00;99.90
14099;DHT22;7126;48.458;7.930;2023-07-29T00:49:12;19.00;99.90
14099;DHT22;7126;48.458;7.930;2023-07-29T00:51:38;19.10;99.90
14099;DHT22;7126;48.458;7.930;2023-07-29T00:54:04;19.10;99.90
14099;DHT22;7126;48.458;7.930;2023-07-29T00:56:30;19.00;99.90
14099;DHT22;7126;48.458;7.930;2023-07-29T00:58:55;19.10;99.90
14099;DHT22;7126;48.458;7.930;2023-07-29T01:01:25;19.10;99.90
14099;DHT22;7126;48.458;7.930;2023-07-29T01:03:51;19.10;99.90
14099;DHT22;7126;48.458;7.930;2023-07-29T01:09:19;19.10;99.90
14099;DHT22;7126;48.458;7.930;2023-07-29T01:17:28;19.00;99.90
14099;DHT22;7126;48.458;7.930;2023-07-29T01:20:21;19.00;99.90
14099;DHT22;7126;48.458;7.930;2023-07-29T01:22:48;19.00;99.90
14099;DHT22;7126;48.458;7.930;2023-07-29T01:25:14;18.90;99.90
14099;DHT22;7126;48.458;7.930;2023-07-29T01:27:45;18.90;99.90
14099;DHT22;7126;48.458;7.930;2023-07-29T01:30:11;18.90;99.90
14099;DHT22;7126;48.458;7.930;2023-07-29T01:35:42;18.90;99.90
14099;DHT22;7126;48.458;7.930;2023-07-29T01:38:17;18.90;99.90
14099;DHT22;7126;48.458;7.930;2023-07-29T01:40:44;18.90;99.90
14099;DHT22;7126;48.458;7.930;2023-07-29T01:43:10;18.90;99.90
14099;DHT22;7126;48.458;7.930;2023-07-29T01:45:36;18.90;99.90
14099;DHT22;7126;48.458;7.930;2023-07-29T01:48:06;18.90;99.90
14099;DHT22;7126;48.458;7.930;2023-07-29T01:50:33;18.90;99.90
14099;DHT22;7126;48.458;7.930;2023-07-29T01:52:59;18.90;99.90
14099;DHT22;7126;48.458;7.930;2023-07-29T01:55:24;18.90;99.90
14099;DHT22;7126;48.458;7.930;2023-07-29T01:57:50;18.90;99.90
14099;DHT22;7126;48.458;7.930;2023-07-29T02:00:20;18.90;99.90
14099;DHT22;7126;48.458;7.930;2023-07-29T02:02:46;18.90;99.90
14099;DHT22;7126;48.458;7.930;2023-07-29T02:05:11;18.90;99.90
14099;DHT22;7126;48.458;7.930;2023-07-29T02:07:37;18.80;99.90
14099;DHT22;7126;48.458;7.930;2023-07-29T02:10:03;18.80;99.90
14099;DHT22;7126;48.458;7.930;2023-07-29T02:12:29;18.90;99.90
14099;DHT22;7126;48.458;7.930;2023-07-29T02:14:54;18.90;99.90
14099;DHT22;7126;48.458;7.930;2023-07-29T02:17:20;18.80;99.90
14099;DHT22;7126;48.458;7.930;2023-07-29T02:19:46;18.80;99.90
14099;DHT22;7126;48.458;7.930;2023-07-29T02:22:16;18.80;99.90
14099;DHT22;7126;48.458;7.930;2023-07-29T02:24:42;18.80;99.90
14099;DHT22;7126;48.458;7.930;2023-07-29T02:27:08;18.90;99.90
14099;DHT22;7126;48.458;7.930;2023-07-29T02:29:33;18.90;99.90
14099;DHT22;7126;48.458;7.930;2023-07-29T02:32:00;18.90;99.90
14099;DHT22;7126;48.458;7.930;2023-07-29T02:34:25;18.90;99.90
14099;DHT22;7126;48.458;7.930;2023-07-29T02:36:51;18.90;99.90
14099;DHT22;7126;48.458;7.930;2023-07-29T02:39:16;18.90;99.90
14099;DHT22;7126;48.458;7.930;2023-07-29T02:41:42;18.90;99.90
14099;DHT22;7126;48.458;7.930;2023-07-29T02:44:07;18.90;99.90
14099;DHT22;7126;48.458;7.930;2023-07-29T02:46:33;18.90;99.90
14099;DHT22;7126;48.458;7.930;2023-07-29T02:48:59;18.90;99.90
14099;DHT22;7126;48.458;7.930;2023-07-29T02:51:24;18.90;99.90
14099;DHT22;7126;48.458;7.930;2023-07-29T02:53:50;18.80;99.90
14099;DHT22;7126;48.458;7.930;2023-07-29T02:56:16;18.90;99.90
14099;DHT22;7126;48.458;7.930;2023-07-29T02:58:41;18.90;99.90
14099;DHT22;7126;48.458;7.930;2023-07-29T03:01:07;18.80;99.90
14099;DHT22;7126;48.458;7.930;2023-07-29T03:03:33;18.90;99.90
14099;DHT22;7126;48.458;7.930;2023-07-29T03:06:04;18.90;99.90
14099;DHT22;7126;48.458;7.930;2023-07-29T03:08:30;18.90;99.90
14099;DHT22;7126;48.458;7.930;2023-07-29T03:10:56;19.00;99.90
14099;DHT22;7126;48.458;7.930;2023-07-29T03:13:22;19.00;99.90
14099;DHT22;7126;48.458;7.930;2023-07-29T03:15:48;18.90;99.90
14099;DHT22;7126;48.458;7.930;2023-07-29T03:18:14;19.00;99.90
14099;DHT22;7126;48.458;7.930;2023-07-29T03:20:40;19.00;99.90
14099;DHT22;7126;48.458;7.930;2023-07-29T03:23:06;19.00;99.90
14099;DHT22;7126;48.458;7.930;2023-07-29T03:25:31;19.00;99.90
14099;DHT22;7126;48.458;7.930;2023-07-29T03:27:57;19.00;99.90
14099;DHT22;7126;48.458;7.930;2023-07-29T03:30:23;18.90;99.90
14099;DHT22;7126;48.458;7.930;2023-07-29T03:32:49;19.00;99.90
14099;DHT22;7126;48.458;7.930;2023-07-29T03:35:15;19.00;99.90
14099;DHT22;7126;48.458;7.930;2023-07-29T03:37:41;18.90;99.90
14099;DHT22;7126;48.458;7.930;2023-07-29T03:40:07;19.00;99.90
14099;DHT22;7126;48.458;7.930;2023-07-29T03:42:35;18.90;99.90
14099;DHT22;7126;48.458;7.930;2023-07-29T03:45:00;18.90;99.90
14099;DHT22;7126;48.458;7.930;2023-07-29T03:47:26;18.90;99.90
14099;DHT22;7126;48.458;7.930;2023-07-29T03:49:52;19.00;99.90
14099;DHT22;7126;48.458;7.930;2023-07-29T03:52:17;19.00;99.90
14099;DHT22;7126;48.458;7.930;2023-07-29T03:54:43;19.00;99.90
14099;DHT22;7126;48.458;7.930;2023-07-29T03:57:08;18.90;99.90
14099;DHT22;7126;48.458;7.930;2023-07-29T03:59:34;19.00;99.90
14099;DHT22;7126;48.458;7.930;2023-07-29T04:01:59;19.00;99.90
14099;DHT22;7126;48.458;7.930;2023-07-29T04:04:25;19.00;99.90
14099;DHT22;7126;48.458;7.930;2023-07-29T04:06:50;19.00;99.90
14099;DHT22;7126;48.458;7.930;2023-07-29T04:09:16;19.00;99.90
14099;DHT22;7126;48.458;7.930;2023-07-29T04:11:41;18.90;99.90
14099;DHT22;7126;48.458;7.930;2023-07-29T04:14:07;19.00;99.90
14099;DHT22;7126;48.458;7.930;2023-07-29T04:16:33;19.00;99.90
14099;DHT22;7126;48.458;7.930;2023-07-29T04:18:58;18.90;99.90
14099;DHT22;7126;48.458;7.930;2023-07-29T04:21:24;18.90;99.90
14099;DHT22;7126;48.458;7.930;2023-07-29T04:23:49;18.90;99.90
14099;DHT22;7126;48.458;7.930;2023-07-29T04:26:15;19.00;99.90
14099;DHT22;7126;48.458;7.930;2023-07-29T04:28:41;18.90;99.90
14099;DHT22;7126;48.458;7.930;2023-07-29T04:31:07;18.90;99.90
14099;DHT22;7126;48.458;7.930;2023-07-29T04:33:33;18.90;99.90
14099;DHT22;7126;48.458;7.930;2023-07-29T04:35:59;18.90;99.90
14099;DHT22;7126;48.458;7.930;2023-07-29T04:38:30;18.90;99.90
14099;DHT22;7126;48.458;7.930;2023-07-29T04:40:56;18.80;99.90
14099;DHT22;7126;48.458;7.930;2023-07-29T04:43:22;18.90;99.90
14099;DHT22;7126;48.458;7.930;2023-07-29T04:45:47;18.80;99.90
14099;DHT22;7126;48.458;7.930;2023-07-29T04:48:13;18.90;99.90
14099;DHT22;7126;48.458;7.930;2023-07-29T04:50:39;18.80;99.90
14099;DHT22;7126;48.458;7.930;2023-07-29T04:53:05;18.80;99.90
14099;DHT22;7126;48.458;7.930;2023-07-29T04:55:30;18.80;99.90
14099;DHT22;7126;48.458;7.930;2023-07-29T04:57:56;18.80;99.90
14099;DHT22;7126;48.458;7.930;2023-07-29T05:00:22;18.90;99.90
14099;DHT22;7126;48.458;7.930;2023-07-29T05:02:47;18.90;99.90
14099;DHT22;7126;48.458;7.930;2023-07-29T05:05:13;18.90;99.90
14099;DHT22;7126;48.458;7.930;2023-07-29T05:07:38;18.90;99.90
14099;DHT22;7126;48.458;7.930;2023-07-29T05:10:04;18.90;99.90
14099;DHT22;7126;48.458;7.930;2023-07-29T05:12:30;18.90;99.90
14099;DHT22;7126;48.458;7.930;2023-07-29T05:14:58;18.90;99.90
14099;DHT22;7126;48.458;7.930;2023-07-29T05:17:23;19.00;99.90
14099;DHT22;7126;48.458;7.930;2023-07-29T05:19:49;19.10;99.90
14099;DHT22;7126;48.458;7.930;2023-07-29T05:22:14;19.20;99.90
14099;DHT22;7126;48.458;7.930;2023-07-29T05:24:40;19.20;99.90
14099;DHT22;7126;48.458;7.930;2023-07-29T05:27:06;19.20;99.90
14099;DHT22;7126;48.458;7.930;2023-07-29T05:29:33;19.30;99.90
14099;DHT22;7126;48.458;7.930;2023-07-29T05:31:59;19.30;99.90
14099;DHT22;7126;48.458;7.930;2023-07-29T05:34:25;19.30;99.90
14099;DHT22;7126;48.458;7.930;2023-07-29T05:36:50;19.30;99.90
14099;DHT22;7126;48.458;7.930;2023-07-29T05:39:16;19.30;99.90
14099;DHT22;7126;48.458;7.930;2023-07-29T05:41:41;19.40;99.90
14099;DHT22;7126;48.458;7.930;2023-07-29T05:44:07;19.40;99.90
14099;DHT22;7126;48.458;7.930;2023-07-29T05:46:32;19.40;99.90
14099;DHT22;7126;48.458;7.930;2023-07-29T05:48:58;19.40;99.90
14099;DHT22;7126;48.458;7.930;2023-07-29T05:51:23;19.40;99.90
14099;DHT22;7126;48.458;7.930;2023-07-29T05:53:49;19.40;99.90
14099;DHT22;7126;48.458;7.930;2023-07-29T05:56:14;19.30;99.90
14099;DHT22;7126;48.458;7.930;2023-07-29T05:58:40;19.30;99.90
14099;DHT22;7126;48.458;7.930;2023-07-29T06:01:05;19.30;99.90
14099;DHT22;7126;48.458;7.930;2023-07-29T06:03:31;19.30;99.90
14099;DHT22;7126;48.458;7.930;2023-07-29T06:05:56;19.30;99.90
14099;DHT22;7126;48.458;7.930;2023-07-29T06:08:22;19.20;99.90
14099;DHT22;7126;48.458;7.930;2023-07-29T06:10:47;19.20;99.90
14099;DHT22;7126;48.458;7.930;2023-07-29T06:13:13;19.20;99.90
14099;DHT22;7126;48.458;7.930;2023-07-29T06:15:38;19.10;99.90
14099;DHT22;7126;48.458;7.930;2023-07-29T06:18:04;19.10;99.90
14099;DHT22;7126;48.458;7.930;2023-07-29T06:20:30;19.10;99.90
14099;DHT22;7126;48.458;7.930;2023-07-29T06:22:55;19.10;99.90
14099;DHT22;7126;48.458;7.930;2023-07-29T06:25:21;19.20;99.90
14099;DHT22;7126;48.458;7.930;2023-07-29T06:27:47;19.20;99.90
14099;DHT22;7126;48.458;7.930;2023-07-29T06:30:13;19.30;99.90
14099;DHT22;7126;48.458;7.930;2023-07-29T06:32:39;19.30;99.90
14099;DHT22;7126;48.458;7.930;2023-07-29T06:35:04;19.40;99.90
14099;DHT22;7126;48.458;7.930;2023-07-29T06:37:30;19.40;99.90
14099;DHT22;7126;48.458;7.930;2023-07-29T06:39:56;19.50;99.90
14099;DHT22;7126;48.458;7.930;2023-07-29T06:42:21;19.50;99.90
14099;DHT22;7126;48.458;7.930;2023-07-29T06:44:47;19.60;99.90
14099;DHT22;7126;48.458;7.930;2023-07-29T06:47:13;19.70;99.90
14099;DHT22;7126;48.458;7.930;2023-07-29T06:49:38;19.70;99.90
14099;DHT22;7126;48.458;7.930;2023-07-29T06:52:04;19.80;99.90
14099;DHT22;7126;48.458;7.930;2023-07-29T06:54:29;19.90;99.90
14099;DHT22;7126;48.458;7.930;2023-07-29T06:56:55;20.00;99.90
14099;DHT22;7126;48.458;7.930;2023-07-29T06:59:21;20.00;99.90
14099;DHT22;7126;48.458;7.930;2023-07-29T07:01:46;20.00;99.90
14099;DHT22;7126;48.458;7.930;2023-07-29T07:04:12;20.10;99.90
14099;DHT22;7126;48.458;7.930;2023-07-29T07:06:37;20.20;99.90
14099;DHT22;7126;48.458;7.930;2023-07-29T07:09:03;20.20;99.90
14099;DHT22;7126;48.458;7.930;2023-07-29T07:11:29;20.30;99.90
14099;DHT22;7126;48.458;7.930;2023-07-29T07:13:54;20.40;99.90
14099;DHT22;7126;48.458;7.930;2023-07-29T07:16:20;20.50;99.90
14099;DHT22;7126;48.458;7.930;2023-07-29T07:18:45;20.50;99.90
14099;DHT22;7126;48.458;7.930;2023-07-29T07:21:11;20.60;99.90
14099;DHT22;7126;48.458;7.930;2023-07-29T07:23:39;20.60;99.90
14099;DHT22;7126;48.458;7.930;2023-07-29T07:26:04;20.70;99.90
14099;DHT22;7126;48.458;7.930;2023-07-29T07:28:30;20.70;99.90
14099;DHT22;7126;48.458;7.930;2023-07-29T07:30:56;20.70;99.90
14099;DHT22;7126;48.458;7.930;2023-07-29T07:33:22;20.70;99.90
14099;DHT22;7126;48.458;7.930;2023-07-29T07:35:47;20.70;99.90
14099;DHT22;7126;48.458;7.930;2023-07-29T07:38:13;20.80;99.90
14099;DHT22;7126;48.458;7.930;2023-07-29T07:40:38;20.80;99.90
14099;DHT22;7126;48.458;7.930;2023-07-29T07:43:04;20.90;99.90
14099;DHT22;7126;48.458;7.930;2023-07-29T07:45:32;20.90;99.90
14099;DHT22;7126;48.458;7.930;2023-07-29T07:47:57;21.00;99.90
14099;DHT22;7126;48.458;7.930;2023-07-29T07:50:23;21.10;99.90
14099;DHT22;7126;48.458;7.930;2023-07-29T07:52:49;21.10;99.90
14099;DHT22;7126;48.458;7.930;2023-07-29T07:55:15;21.20;99.90
14099;DHT22;7126;48.458;7.930;2023-07-29T07:57:40;21.30;99.90
14099;DHT22;7126;48.458;7.930;2023-07-29T08:00:06;21.30;99.90
14099;DHT22;7126;48.458;7.930;2023-07-29T08:02:32;21.40;99.90
14099;DHT22;7126;48.458;7.930;2023-07-29T08:04:58;21.50;99.90
14099;DHT22;7126;48.458;7.930;2023-07-29T08:07:23;21.50;99.90
14099;DHT22;7126;48.458;7.930;2023-07-29T08:09:49;21.60;99.90
14099;DHT22;7126;48.458;7.930;2023-07-29T08:12:14;21.70;99.90
14099;DHT22;7126;48.458;7.930;2023-07-29T08:14:40;21.80;99.90
14099;DHT22;7126;48.458;7.930;2023-07-29T08:17:06;21.90;99.90
14099;DHT22;7126;48.458;7.930;2023-07-29T08:19:31;22.10;99.90
14099;DHT22;7126;48.458;7.930;2023-07-29T08:21:57;22.20;99.90
14099;DHT22;7126;48.458;7.930;2023-07-29T08:24:23;22.40;99.90
14099;DHT22;7126;48.458;7.930;2023-07-29T08:26:48;22.50;99.90
14099;DHT22;7126;48.458;7.930;2023-07-29T08:29:14;22.70;99.90
14099;DHT22;7126;48.458;7.930;2023-07-29T08:31:40;22.80;99.90
14099;DHT22;7126;48.458;7.930;2023-07-29T08:34:05;22.90;99.90
14099;DHT22;7126;48.458;7.930;2023-07-29T08:36:31;23.10;99.90
14099;DHT22;7126;48.458;7.930;2023-07-29T08:38:57;23.10;99.90
14099;DHT22;7126;48.458;7.930;2023-07-29T08:41:32;23.10;99.90
14099;DHT22;7126;48.458;7.930;2023-07-29T08:44:12;23.00;99.90
14099;DHT22;7126;48.458;7.930;2023-07-29T08:46:40;23.00;99.90
14099;DHT22;7126;48.458;7.930;2023-07-29T08:49:06;22.90;99.90
14099;DHT22;7126;48.458;7.930;2023-07-29T08:51:33;23.10;99.90
14099;DHT22;7126;48.458;7.930;2023-07-29T08:54:00;23.10;99.90
14099;DHT22;7126;48.458;7.930;2023-07-29T08:56:26;23.10;99.90
14099;DHT22;7126;48.458;7.930;2023-07-29T08:58:53;22.90;99.90
14099;DHT22;7126;48.458;7.930;2023-07-29T09:01:19;22.90;99.90
14099;DHT22;7126;48.458;7.930;2023-07-29T09:03:45;22.80;99.90
14099;DHT22;7126;48.458;7.930;2023-07-29T09:06:11;22.90;99.90
14099;DHT22;7126;48.458;7.930;2023-07-29T09:08:38;22.90;99.90
14099;DHT22;7126;48.458;7.930;2023-07-29T09:11:03;22.90;99.90
14099;DHT22;7126;48.458;7.930;2023-07-29T09:13:29;22.90;99.90
14099;DHT22;7126;48.458;7.930;2023-07-29T09:15:56;22.90;99.90
14099;DHT22;7126;48.458;7.930;2023-07-29T09:18:22;23.00;99.90
14099;DHT22;7126;48.458;7.930;2023-07-29T09:20:49;23.10;99.90
14099;DHT22;7126;48.458;7.930;2023-07-29T09:23:15;23.20;99.90
14099;DHT22;7126;48.458;7.930;2023-07-29T09:25:41;23.30;99.90
14099;DHT22;7126;48.458;7.930;2023-07-29T09:28:14;23.40;99.90
14099;DHT22;7126;48.458;7.930;2023-07-29T09:30:42;23.50;99.90
14099;DHT22;7126;48.458;7.930;2023-07-29T09:33:09;23.50;99.90
14099;DHT22;7126;48.458;7.930;2023-07-29T09:35:36;23.70;99.90
14099;DHT22;7126;48.458;7.930;2023-07-29T09:38:02;23.90;99.90
14099;DHT22;7126;48.458;7.930;2023-07-29T09:40:35;24.00;99.90
14099;DHT22;7126;48.458;7.930;2023-07-29T09:43:01;24.00;99.90
14099;DHT22;7126;48.458;7.930;2023-07-29T09:45:27;23.90;99.90
14099;DHT22;7126;48.458;7.930;2023-07-29T09:47:54;23.90;99.90
14099;DHT22;7126;48.458;7.930;2023-07-29T09:50:25;23.90;99.90
14099;DHT22;7126;48.458;7.930;2023-07-29T09:52:52;23.80;99.90
14099;DHT22;7126;48.458;7.930;2023-07-29T09:55:24;23.70;99.90
14099;DHT22;7126;48.458;7.930;2023-07-29T09:58:02;23.70;99.90
14099;DHT22;7126;48.458;7.930;2023-07-29T10:00:30;23.70;99.90
14099;DHT22;7126;48.458;7.930;2023-07-29T10:02:57;23.80;99.90
14099;DHT22;7126;48.458;7.930;2023-07-29T10:05:26;24.00;99.90
14099;DHT22;7126;48.458;7.930;2023-07-29T10:07:52;24.10;99.90
14099;DHT22;7126;48.458;7.930;2023-07-29T10:10:20;24.10;99.90
14099;DHT22;7126;48.458;7.930;2023-07-29T10:12:46;24.10;99.90
14099;DHT22;7126;48.458;7.930;2023-07-29T10:15:11;24.00;99.90
14099;DHT22;7126;48.458;7.930;2023-07-29T10:17:38;23.90;99.90
14099;DHT22;7126;48.458;7.930;2023-07-29T10:20:06;23.90;99.90
14099;DHT22;7126;48.458;7.930;2023-07-29T10:22:40;23.90;99.90
14099;DHT22;7126;48.458;7.930;2023-07-29T10:25:13;24.10;99.90
14099;DHT22;7126;48.458;7.930;2023-07-29T10:27:49;24.20;99.90
14099;DHT22;7126;48.458;7.930;2023-07-29T10:30:14;24.30;99.90
14099;DHT22;7126;48.458;7.930;2023-07-29T10:32:44;24.30;99.90
14099;DHT22;7126;48.458;7.930;2023-07-29T10:35:14;24.30;99.90
14099;DHT22;7126;48.458;7.930;2023-07-29T10:37:40;24.40;99.90
14099;DHT22;7126;48.458;7.930;2023-07-29T10:40:09;24.40;99.90
14099;DHT22;7126;48.458;7.930;2023-07-29T10:42:35;24.60;99.90
14099;DHT22;7126;48.458;7.930;2023-07-29T10:45:17;24.60;99.90
14099;DHT22;7126;48.458;7.930;2023-07-29T10:47:43;24.70;99.90
14099;DHT22;7126;48.458;7.930;2023-07-29T10:50:18;24.70;99.90
14099;DHT22;7126;48.458;7.930;2023-07-29T10:52:43;24.80;99.90
14099;DHT22;7126;48.458;7.930;2023-07-29T10:57:52;25.00;99.90
14099;DHT22;7126;48.458;7.930;2023-07-29T11:00:20;25.00;99.90
14099;DHT22;7126;48.458;7.930;2023-07-29T11:03:02;25.00;99.90
14099;DHT22;7126;48.458;7.930;2023-07-29T11:05:42;25.00;99.90
14099;DHT22;7126;48.458;7.930;2023-07-29T11:08:30;24.90;99.90
14099;DHT22;7126;48.458;7.930;2023-07-29T11:11:07;24.90;99.90
14099;DHT22;7126;48.458;7.930;2023-07-29T11:13:37;24.80;99.90
14099;DHT22;7126;48.458;7.930;2023-07-29T11:16:03;24.80;99.90
14099;DHT22;7126;48.458;7.930;2023-07-29T11:18:31;24.90;99.90
14099;DHT22;7126;48.458;7.930;2023-07-29T11:20:57;24.90;99.90
14099;DHT22;7126;48.458;7.930;2023-07-29T11:23:28;24.90;99.90
14099;DHT22;7126;48.458;7.930;2023-07-29T11:25:55;25.00;99.90
14099;DHT22;7126;48.458;7.930;2023-07-29T11:28:20;25.10;99.90
14099;DHT22;7126;48.458;7.930;2023-07-29T11:30:47;25.20;99.90
14099;DHT22;7126;48.458;7.930;2023-07-29T11:33:13;25.20;99.90
14099;DHT22;7126;48.458;7.930;2023-07-29T11:35:38;25.20;99.90
14099;DHT22;7126;48.458;7.930;2023-07-29T11:38:04;25.20;99.90
14099;DHT22;7126;48.458;7.930;2023-07-29T11:40:29;25.20;99.90
14099;DHT22;7126;48.458;7.930;2023-07-29T11:42:55;25.20;99.90
14099;DHT22;7126;48.458;7.930;2023-07-29T11:45:21;25.20;99.90
14099;DHT22;7126;48.458;7.930;2023-07-29T11:47:48;25.40;99.90
14099;DHT22;7126;48.458;7.930;2023-07-29T11:50:14;25.70;99.90
14099;DHT22;7126;48.458;7.930;2023-07-29T11:52:41;25.90;99.90
14099;DHT22;7126;48.458;7.930;2023-07-29T11:55:08;26.20;99.90
14099;DHT22;7126;48.458;7.930;2023-07-29T11:57:35;26.40;99.90
14099;DHT22;7126;48.458;7.930;2023-07-29T12:00:06;26.30;99.90
14099;DHT22;7126;48.458;7.930;2023-07-29T12:02:36;26.40;99.90
14099;DHT22;7126;48.458;7.930;2023-07-29T12:05:03;26.30;99.90
14099;DHT22;7126;48.458;7.930;2023-07-29T12:07:29;26.10;99.90
14099;DHT22;7126;48.458;7.930;2023-07-29T12:09:55;25.90;99.90
14099;DHT22;7126;48.458;7.930;2023-07-29T12:12:22;25.70;99.90
14099;DHT22;7126;48.458;7.930;2023-07-29T12:14:48;25.60;99.90
14099;DHT22;7126;48.458;7.930;2023-07-29T12:17:13;25.60;99.90
14099;DHT22;7126;48.458;7.930;2023-07-29T12:19:40;25.50;99.90
14099;DHT22;7126;48.458;7.930;2023-07-29T12:22:08;25.60;99.90
14099;DHT22;7126;48.458;7.930;2023-07-29T12:24:39;25.60;99.90
14099;DHT22;7126;48.458;7.930;2023-07-29T12:27:05;25.70;99.90
14099;DHT22;7126;48.458;7.930;2023-07-29T12:29:31;25.70;99.90
14099;DHT22;7126;48.458;7.930;2023-07-29T12:32:02;25.70;99.90
14099;DHT22;7126;48.458;7.930;2023-07-29T12:34:29;25.80;99.90
14099;DHT22;7126;48.458;7.930;2023-07-29T12:36:55;25.70;99.90
14099;DHT22;7126;48.458;7.930;2023-07-29T12:39:25;25.70;99.90
14099;DHT22;7126;48.458;7.930;2023-07-29T12:41:53;25.70;99.90
14099;DHT22;7126;48.458;7.930;2023-07-29T12:44:19;25.70;99.90
14099;DHT22;7126;48.458;7.930;2023-07-29T12:46:45;25.70;99.90
14099;DHT22;7126;48.458;7.930;2023-07-29T12:49:11;25.70;99.90
14099;DHT22;7126;48.458;7.930;2023-07-29T12:51:37;25.70;99.90
14099;DHT22;7126;48.458;7.930;2023-07-29T12:54:03;25.70;99.90
14099;DHT22;7126;48.458;7.930;2023-07-29T12:56:30;25.80;99.90
14099;DHT22;7126;48.458;7.930;2023-07-29T12:58:57;25.90;99.90
14099;DHT22;7126;48.458;7.930;2023-07-29T13:01:26;26.00;99.90
14099;DHT22;7126;48.458;7.930;2023-07-29T13:03:52;26.20;99.90
14099;DHT22;7126;48.458;7.930;2023-07-29T13:06:18;26.30;99.90
14099;DHT22;7126;48.458;7.930;2023-07-29T13:08:44;26.30;99.90
14099;DHT22;7126;48.458;7.930;2023-07-29T13:11:10;26.30;99.90
14099;DHT22;7126;48.458;7.930;2023-07-29T13:13:36;26.30;99.90
14099;DHT22;7126;48.458;7.930;2023-07-29T13:16:01;26.40;99.90
14099;DHT22;7126;48.458;7.930;2023-07-29T13:18:28;26.40;99.90
14099;DHT22;7126;48.458;7.930;2023-07-29T13:20:54;26.30;99.90
14099;DHT22;7126;48.458;7.930;2023-07-29T13:23:19;26.20;99.90
14099;DHT22;7126;48.458;7.930;2023-07-29T13:25:45;26.20;99.90
14099;DHT22;7126;48.458;7.930;2023-07-29T13:28:11;26.20;99.90
14099;DHT22;7126;48.458;7.930;2023-07-29T13:30:39;26.30;99.90
14099;DHT22;7126;48.458;7.930;2023-07-29T13:33:06;26.30;99.90
14099;DHT22;7126;48.458;7.930;2023-07-29T13:35:32;26.40;99.90
14099;DHT22;7126;48.458;7.930;2023-07-29T13:37:58;26.40;99.90
14099;DHT22;7126;48.458;7.930;2023-07-29T13:40:23;26.30;99.90
14099;DHT22;7126;48.458;7.930;2023-07-29T13:42:49;26.30;99.90
14099;DHT22;7126;48.458;7.930;2023-07-29T13:45:15;26.10;99.90
14099;DHT22;7126;48.458;7.930;2023-07-29T13:47:41;26.10;99.90
14099;DHT22;7126;48.458;7.930;2023-07-29T13:50:07;26.00;99.90
14099;DHT22;7126;48.458;7.930;2023-07-29T13:52:36;25.90;99.90
14099;DHT22;7126;48.458;7.930;2023-07-29T13:55:03;25.70;99.90
14099;DHT22;7126;48.458;7.930;2023-07-29T13:57:29;25.70;99.90
14099;DHT22;7126;48.458;7.930;2023-07-29T13:59:54;25.60;99.90
14099;DHT22;7126;48.458;7.930;2023-07-29T14:02:20;25.50;99.90
14099;DHT22;7126;48.458;7.930;2023-07-29T14:04:45;25.40;99.90
14099;DHT22;7126;48.458;7.930;2023-07-29T14:07:11;25.40;99.90
14099;DHT22;7126;48.458;7.930;2023-07-29T14:09:36;25.30;99.90
14099;DHT22;7126;48.458;7.930;2023-07-29T14:12:04;25.30;99.90
14099;DHT22;7126;48.458;7.930;2023-07-29T14:14:30;25.30;99.90
14099;DHT22;7126;48.458;7.930;2023-07-29T14:16:55;25.20;99.90
14099;DHT22;7126;48.458;7.930;2023-07-29T14:19:21;25.30;99.90
14099;DHT22;7126;48.458;7.930;2023-07-29T14:21:47;25.20;99.90
14099;DHT22;7126;48.458;7.930;2023-07-29T14:24:13;25.10;99.90
14099;DHT22;7126;48.458;7.930;2023-07-29T14:26:38;25.10;99.90
14099;DHT22;7126;48.458;7.930;2023-07-29T14:29:04;25.00;99.90
14099;DHT22;7126;48.458;7.930;2023-07-29T14:31:29;25.00;99.90
14099;DHT22;7126;48.458;7.930;2023-07-29T14:33:55;24.90;99.90
14099;DHT22;7126;48.458;7.930;2023-07-29T14:36:21;24.90;99.90
14099;DHT22;7126;48.458;7.930;2023-07-29T14:38:46;25.00;99.90
14099;DHT22;7126;48.458;7.930;2023-07-29T14:41:12;25.00;99.90
14099;DHT22;7126;48.458;7.930;2023-07-29T14:43:37;25.00;99.90
14099;DHT22;7126;48.458;7.930;2023-07-29T14:46:03;25.10;99.90
14099;DHT22;7126;48.458;7.930;2023-07-29T14:48:29;25.20;99.90
14099;DHT22;7126;48.458;7.930;2023-07-29T14:50:55;25.10;99.90
14099;DHT22;7126;48.458;7.930;2023-07-29T14:53:20;25.00;99.90
14099;DHT22;7126;48.458;7.930;2023-07-29T14:55:46;25.00;99.90
14099;DHT22;7126;48.458;7.930;2023-07-29T14:58:11;25.00;99.90
14099;DHT22;7126;48.458;7.930;2023-07-29T15:00:37;25.00;99.90
14099;DHT22;7126;48.458;7.930;2023-07-29T15:03:03;25.00;99.90
14099;DHT22;7126;48.458;7.930;2023-07-29T15:05:28;25.10;99.90
14099;DHT22;7126;48.458;7.930;2023-07-29T15:07:54;25.10;99.90
14099;DHT22;7126;48.458;7.930;2023-07-29T15:10:20;25.40;99.90
14099;DHT22;7126;48.458;7.930;2023-07-29T15:12:46;25.60;99.90
14099;DHT22;7126;48.458;7.930;2023-07-29T15:15:12;25.60;99.90
14099;DHT22;7126;48.458;7.930;2023-07-29T15:17:38;25.50;99.90
14099;DHT22;7126;48.458;7.930;2023-07-29T15:20:04;25.40;99.90
14099;DHT22;7126;48.458;7.930;2023-07-29T15:22:30;25.30;99.90
14099;DHT22;7126;48.458;7.930;2023-07-29T15:24:57;25.30;99.90
14099;DHT22;7126;48.458;7.930;2023-07-29T15:27:24;25.30;99.90
14099;DHT22;7126;48.458;7.930;2023-07-29T15:29:50;25.20;99.90
14099;DHT22;7126;48.458;7.930;2023-07-29T15:32:15;25.10;99.90
14099;DHT22;7126;48.458;7.930;2023-07-29T15:34:41;25.10;99.90
14099;DHT22;7126;48.458;7.930;2023-07-29T15:37:06;25.00;99.90
14099;DHT22;7126;48.458;7.930;2023-07-29T15:39:32;24.90;99.90
14099;DHT22;7126;48.458;7.930;2023-07-29T15:41:58;24.90;99.90
14099;DHT22;7126;48.458;7.930;2023-07-29T15:44:23;24.90;99.90
14099;DHT22;7126;48.458;7.930;2023-07-29T15:46:49;24.90;99.90
14099;DHT22;7126;48.458;7.930;2023-07-29T15:49:17;24.80;99.90
14099;DHT22;7126;48.458;7.930;2023-07-29T15:51:43;24.80;99.90
14099;DHT22;7126;48.458;7.930;2023-07-29T15:54:10;24.80;99.90